Tuesday, June 28, 2016
15:02 UTC
  |  Log In   |  Register Free
Airport Search:

Gainesville Municipal Airport
(KGLE)

FAA data valid effective May 26 2016 - Jul 21 2016 (unless otherwise noted).

 
 
 
 
 
 
 
 
 
 
 
 
 
 
Current Aviation Weather for KGLE

Weather Summary


The most recent METAR observation for GLE was updated at: 12:55 UTC
METAR for KGLE is not available. Closest METAR is for KGYI
KGLE  (most recent observation was updatred at 28:14 UTC)
281435Z AUTO 34006KT 10SM CLR 28/24 A3014 RMK AO2 T02840238

KGYI  (26.4 nm SW)   (most recent observation was updated at 28:14 UTC)
281435Z AUTO 07006KT 10SM SCT075 30/25 A3013 RMK AO2 T02950245

KDTO  (27.0 nm NE)   (most recent observation was updated at 28:14 UTC)
281453Z 02007KT 10SM SCT090 31/22 A3011 RMK AO2 SLP186 T03060222 51013

TAF for KGLE is not available.
GlobalAir.com is loading additional information.
 Current Weather at GLE
80.0 F° (26.8 C°)

North winds at 5.8 mph
Pressure:
30.14 in
Humidity:
81%
Wind:
North at 5.8 mph
Dew Point:
73.8 F° (23.2 C°)
Visibility:
10.00 mi
GLE NOAA Radar




Find All Airport Services Find A Hotel Find A Rental Car Find A Golf Course Find A Restaurant $100 Hamburger



Airport Weather Forecast for KGLE

Translated METAR for KGLE (1435 UTC)
METAR:
KGLE 281435Z AUTO 34006KT 10SM CLR 28/24 A3014 RMK AO2 T02840238
Conditions at:
KGLE (Gainesville Muni, TX) observed 1435 UTC 28 June 2016
Temperature:
28°C (82.4°F)
Dewpoint:
24°C (75.2°F) [RH = 78.9]
Pressure:
30.14 inches Hg (1020.7 mb)
Winds:
from the NNW (340 degrees) at 6.9 mph (6 knots: 3.1 m/s)
Visibility:
10 mile(s)
Ceiling:
at least 12,000 feet AGL
Clouds:
Clear below 12,000 feet AGL
Remarks:
site is un-manned
site is automated and HAS a precipitation sensor

Translated TAF for TAF for GLE is not available. Refer to local area forecast.
FBO's on the Field
FBO Company Facility Photos Services Transportation Aviation Fuel Prices: Prices include tax
Catering Weather Repair Courtesy Rental Type 100LL JetA JetA+ MOGAS 8087
 
City of Gainesville Municipal Airport

This FBO has not yet been rated
FS:Phillips 66
Last Updated: May-24
Login to update fuel prices
SS:
Contact City of Gainesville Municipal AirportMore FBO Information
 
Add another FBO Facility Photos Catering Weather Repair Courtesy Rental Type 100LL JetA JetA+ MOGAS 8087
Services Transportation Aviation Fuel Prices: Prices include tax


model-print
model-print
model-print
model-print